Time;durP1;ratioP1;P1;durP2;ratioP2;P2;SDS_P1;SDS_P2;PMS_P1;PMS_P2;Temp;Humidity;BMP_temperature;BMP_pressure;BME280_temperature;BME280_humidity;BME280_pressure;Samples;Min_cycle;Max_cycle;Signal;HPM_P1;HPM_P2
2023/04/20 00:02:01;;;;;;;5.00;3.15;;;;;;;5.67;57.63;102235.25;5022395;28;20053;-71
2023/04/20 00:04:28;;;;;;;9.57;3.60;;;;;;;5.89;57.15;102234.78;5023620;28;20042;-71
2023/04/20 00:06:55;;;;;;;9.50;3.60;;;;;;;5.87;56.80;102228.63;5013670;28;20718;-70
2023/04/20 00:09:21;;;;;;;6.85;4.00;;;;;;;5.77;57.79;102217.34;5015066;28;20140;-70
2023/04/20 00:11:47;;;;;;;5.45;3.30;;;;;;;5.69;58.49;102217.53;5017200;28;20217;-70
2023/04/20 00:14:13;;;;;;;6.57;3.20;;;;;;;5.77;57.64;102208.56;5021068;28;20073;-70
2023/04/20 00:16:39;;;;;;;8.20;3.08;;;;;;;5.67;57.89;102206.13;4994604;28;20038;-70
2023/04/20 00:19:24;;;;;;;10.98;2.97;;;;;;;5.80;57.85;102198.78;5021073;28;20045;-70
2023/04/20 00:21:51;;;;;;;5.13;3.15;;;;;;;5.75;58.26;102197.13;5023683;28;20048;-71
2023/04/20 00:24:26;;;;;;;5.40;3.40;;;;;;;5.64;58.43;102185.00;5019252;28;20148;-70
2023/04/20 00:26:51;;;;;;;6.65;2.90;;;;;;;5.67;57.75;102184.97;5025819;28;20033;-70
2023/04/20 00:29:18;;;;;;;7.28;3.88;;;;;;;5.82;57.86;102181.06;5015072;28;20042;-70
2023/04/20 00:31:44;;;;;;;8.07;3.40;;;;;;;5.59;59.01;102172.78;5012072;28;20048;-70
2023/04/20 00:34:09;;;;;;;12.98;3.10;;;;;;;5.57;59.08;102167.53;5011395;28;20820;-70
2023/04/20 00:36:35;;;;;;;7.13;3.35;;;;;;;5.63;59.30;102166.53;5030595;28;20942;-70
2023/04/20 00:39:01;;;;;;;8.85;3.15;;;;;;;5.75;59.32;102154.78;5016456;28;20037;-70
2023/04/20 00:41:27;;;;;;;8.80;3.38;;;;;;;5.68;58.51;102152.28;5010399;28;20053;-71
2023/04/20 00:43:53;;;;;;;7.80;2.97;;;;;;;5.70;58.23;102152.25;5023618;28;20468;-71
2023/04/20 00:46:19;;;;;;;5.90;3.58;;;;;;;5.74;59.02;102150.41;5022410;28;20038;-71
2023/04/20 00:48:45;;;;;;;11.55;3.20;;;;;;;5.71;59.20;102138.09;5010206;28;20762;-69
2023/04/20 00:51:11;;;;;;;6.57;3.28;;;;;;;5.72;59.86;102137.19;5007984;28;20068;-71
2023/04/20 00:53:37;;;;;;;8.43;3.35;;;;;;;5.62;59.96;102133.00;5022697;28;20040;-72
2023/04/20 00:56:03;;;;;;;9.80;3.55;;;;;;;5.66;60.53;102132.03;5020589;28;21191;-71
2023/04/20 00:58:29;;;;;;;7.55;3.55;;;;;;;5.79;59.75;102122.94;5022072;28;20096;-71
2023/04/20 01:00:58;;;;;;;5.60;3.35;;;;;;;5.81;59.75;102126.41;5022985;28;20589;-72
2023/04/20 01:03:23;;;;;;;10.23;3.80;;;;;;;5.79;60.39;102122.06;5010679;28;20045;-71
2023/04/20 01:05:50;;;;;;;6.90;3.67;;;;;;;5.88;61.06;102117.44;5016851;28;20180;-71
2023/04/20 01:08:16;;;;;;;8.13;3.90;;;;;;;6.21;59.12;102112.25;5018407;28;20056;-71
2023/04/20 01:10:41;;;;;;;9.13;3.85;;;;;;;6.15;60.67;102117.72;5010580;28;20030;-71
2023/04/20 01:13:07;;;;;;;4.40;3.20;;;;;;;6.13;60.17;102104.50;5025983;28;20033;-70
2023/04/20 01:15:34;;;;;;;8.32;3.67;;;;;;;6.23;61.35;102106.03;5020375;28;20080;-71
2023/04/20 01:17:59;;;;;;;6.20;3.42;;;;;;;6.20;61.51;102094.63;5019149;28;20037;-69
2023/04/20 01:20:25;;;;;;;7.47;4.35;;;;;;;6.09;61.67;102101.97;4995582;28;20037;-71
2023/04/20 01:22:55;;;;;;;11.18;4.10;;;;;;;6.19;62.58;102092.91;5014746;28;20498;-70
2023/04/20 01:25:21;;;;;;;6.65;4.50;;;;;;;6.23;61.71;102076.03;5024776;28;20038;-69
2023/04/20 01:27:46;;;;;;;4.75;3.08;;;;;;;6.21;62.25;102080.47;5025090;28;20043;-69
2023/04/20 01:30:12;;;;;;;6.90;3.58;;;;;;;6.00;64.19;102081.00;5015728;28;20064;-70
2023/04/20 01:32:39;;;;;;;9.27;3.63;;;;;;;5.94;65.67;102077.59;5008796;28;20037;-70
2023/04/20 01:35:05;;;;;;;9.52;3.80;;;;;;;5.95;65.16;102071.41;5021407;28;20037;-70
2023/04/20 01:37:31;;;;;;;10.57;4.05;;;;;;;5.81;67.32;102064.66;5012197;28;20026;-70
2023/04/20 01:39:57;;;;;;;8.50;4.47;;;;;;;5.85;68.28;102072.50;5017558;28;20041;-69
2023/04/20 01:42:23;;;;;;;6.38;4.30;;;;;;;5.81;69.05;102067.31;5022268;28;20053;-70
2023/04/20 01:44:50;;;;;;;8.35;4.20;;;;;;;5.94;68.88;102067.03;5016850;28;20065;-70
2023/04/20 01:47:17;;;;;;;8.65;4.40;;;;;;;5.78;70.94;102064.75;5008436;28;20038;-70
2023/04/20 01:49:43;;;;;;;9.57;4.63;;;;;;;5.77;70.97;102055.06;5022070;28;20666;-70
2023/04/20 01:52:09;;;;;;;7.88;4.45;;;;;;;5.70;73.21;102056.97;5016026;28;20038;-70
2023/04/20 01:54:36;;;;;;;8.00;4.78;;;;;;;5.75;72.33;102048.94;5022985;28;20034;-70
2023/04/20 01:57:02;;;;;;;6.82;3.97;;;;;;;5.77;73.47;102045.34;5022906;28;20034;-70
2023/04/20 01:59:27;;;;;;;9.68;4.22;;;;;;;5.62;75.66;102045.69;5018074;28;20038;-70
2023/04/20 02:01:53;;;;;;;8.73;4.72;;;;;;;5.67;75.03;102041.16;5027803;28;20095;-70
2023/04/20 02:04:20;;;;;;;6.50;4.45;;;;;;;5.75;75.93;102031.28;5013227;28;20668;-70
2023/04/20 02:06:45;;;;;;;9.38;5.05;;;;;;;5.71;77.61;102029.59;5008275;28;20030;-70
2023/04/20 02:09:11;;;;;;;11.63;5.10;;;;;;;5.84;76.18;102032.84;5013050;28;20037;-70
2023/04/20 02:11:36;;;;;;;8.18;4.55;;;;;;;5.97;77.41;102021.94;5022562;28;20044;-70
2023/04/20 02:14:13;;;;;;;5.75;4.35;;;;;;;6.01;77.05;102022.72;5006143;28;20030;-71
2023/04/20 02:16:41;;;;;;;8.70;4.50;;;;;;;6.12;76.48;102010.06;5024854;28;20042;-70
2023/04/20 02:19:11;;;;;;;9.55;4.97;;;;;;;6.14;77.95;102004.75;5017280;28;20108;-71
2023/04/20 02:21:37;;;;;;;10.10;5.30;;;;;;;6.08;80.45;102004.91;5020372;28;20034;-70
2023/04/20 02:24:04;;;;;;;10.57;4.90;;;;;;;6.22;78.59;102003.66;5023613;28;20037;-70
2023/04/20 02:26:29;;;;;;;7.38;4.35;;;;;;;6.27;79.00;101998.19;5009642;28;20037;-69
2023/04/20 02:28:55;;;;;;;8.32;4.75;;;;;;;6.23;78.58;101989.50;5024166;28;20663;-70
2023/04/20 02:31:23;;;;;;;7.20;4.45;;;;;;;6.26;80.10;102006.19;5024221;28;20107;-69
2023/04/20 02:33:50;;;;;;;12.23;4.25;;;;;;;6.32;81.16;101988.34;5006064;28;20039;-70
2023/04/20 02:36:15;;;;;;;9.93;4.45;;;;;;;6.28;80.73;101988.50;5015740;28;20045;-70
2023/04/20 02:38:41;;;;;;;12.00;4.53;;;;;;;6.38;79.96;101984.69;4995359;28;20046;-69
2023/04/20 02:41:06;;;;;;;10.18;5.55;;;;;;;6.31;80.97;101994.56;5016478;28;20359;-70
2023/04/20 02:43:34;;;;;;;6.13;4.18;;;;;;;6.33;81.85;101986.59;4990883;28;20118;-70
2023/04/20 02:46:01;;;;;;;9.40;5.30;;;;;;;6.37;83.10;101981.13;5002802;28;20884;-69
2023/04/20 02:48:27;;;;;;;8.75;4.85;;;;;;;6.32;83.07;101975.09;5021899;28;20505;-70
2023/04/20 02:50:56;;;;;;;11.07;5.72;;;;;;;6.38;83.73;101972.31;5006768;28;20045;-70
2023/04/20 02:53:23;;;;;;;10.57;5.13;;;;;;;6.35;82.77;101969.72;5007207;28;20030;-70
2023/04/20 02:55:58;;;;;;;9.18;5.43;;;;;;;6.36;84.20;101974.13;5006875;28;20112;-70
2023/04/20 02:58:40;;;;;;;8.05;4.45;;;;;;;6.42;84.44;101981.88;5014135;28;20791;-70
2023/04/20 03:01:18;;;;;;;11.45;4.85;;;;;;;6.54;84.53;101972.75;5004921;28;20037;-70
2023/04/20 03:03:45;;;;;;;9.15;5.28;;;;;;;6.44;85.08;101972.13;4998167;28;20188;-70
2023/04/20 03:06:11;;;;;;;10.60;4.88;;;;;;;6.54;85.73;101971.88;4993366;28;20069;-69
2023/04/20 03:08:39;;;;;;;8.60;5.07;;;;;;;6.57;85.69;101963.81;5004648;28;20034;-70
2023/04/20 03:11:25;;;;;;;13.77;5.88;;;;;;;6.65;84.88;101968.00;5016096;28;20158;-69
2023/04/20 03:13:50;;;;;;;9.23;4.75;;;;;;;6.52;86.41;101953.34;5018742;28;20042;-72
2023/04/20 03:16:16;;;;;;;10.13;4.65;;;;;;;6.52;87.09;101958.66;5008764;28;20038;-71
2023/04/20 03:18:55;;;;;;;9.77;5.10;;;;;;;6.53;88.42;101965.72;5008598;28;20030;-70
2023/04/20 03:21:20;;;;;;;10.32;5.82;;;;;;;6.60;87.59;101956.66;5016343;28;20060;-70
2023/04/20 03:23:46;;;;;;;10.70;5.63;;;;;;;6.56;86.89;101956.78;5018819;28;20116;-70
2023/04/20 03:26:12;;;;;;;10.00;6.32;;;;;;;6.57;87.76;101954.09;5022312;28;20196;-70
2023/04/20 03:28:58;;;;;;;8.82;5.35;;;;;;;6.60;88.44;101950.50;5010327;28;20041;-69
2023/04/20 03:31:25;;;;;;;8.30;5.70;;;;;;;6.54;88.71;101959.50;5006290;28;20635;-70
2023/04/20 03:33:52;;;;;;;9.07;5.38;;;;;;;6.59;88.11;101956.72;5011992;28;20041;-72
2023/04/20 03:36:18;;;;;;;11.10;5.20;;;;;;;6.68;87.88;101951.16;5013205;28;20929;-69
2023/04/20 03:38:44;;;;;;;8.77;5.57;;;;;;;6.60;87.09;101945.19;5021371;28;20026;-70
2023/04/20 03:41:10;;;;;;;12.35;5.35;;;;;;;6.77;85.96;101944.69;5015458;28;20029;-70
2023/04/20 03:43:37;;;;;;;10.15;5.57;;;;;;;6.69;85.75;101940.50;5016962;28;20079;-70
2023/04/20 03:46:02;;;;;;;8.63;5.25;;;;;;;6.77;84.77;101944.69;5021823;28;20768;-70
2023/04/20 03:48:27;;;;;;;12.45;5.03;;;;;;;6.82;85.17;101935.69;5019843;28;20061;-70
2023/04/20 03:50:53;;;;;;;11.63;5.03;;;;;;;6.72;85.59;101939.53;5007386;28;20041;-69
2023/04/20 03:53:18;;;;;;;9.82;5.13;;;;;;;6.78;84.89;101936.72;5016597;28;20030;-70
2023/04/20 03:55:44;;;;;;;10.05;5.22;;;;;;;6.89;84.78;101942.56;4999265;28;20486;-70
2023/04/20 03:58:13;;;;;;;7.40;4.75;;;;;;;6.87;83.36;101931.09;5005221;28;20033;-70
2023/04/20 04:01:06;;;;;;;8.23;5.05;;;;;;;6.94;83.25;101931.81;5008864;28;20113;-70
2023/04/20 04:03:43;;;;;;;9.68;5.10;;;;;;;6.94;83.17;101923.84;5022866;28;20034;-70
2023/04/20 04:06:10;;;;;;;9.35;5.03;;;;;;;6.96;82.96;101914.06;4994384;28;20038;-71
2023/04/20 04:08:36;;;;;;;11.98;5.00;;;;;;;7.06;81.84;101915.50;5005049;28;20871;-70
2023/04/20 04:11:02;;;;;;;12.70;5.25;;;;;;;7.05;82.99;101911.13;5008737;28;20048;-70
2023/04/20 04:13:31;;;;;;;9.52;5.47;;;;;;;7.03;83.48;101912.97;5023612;28;20041;-71
2023/04/20 04:15:57;;;;;;;8.75;5.15;;;;;;;7.09;82.99;101907.47;5016516;28;20049;-71
2023/04/20 04:18:23;;;;;;;11.82;5.75;;;;;;;7.09;83.05;101893.34;5007333;28;20145;-71
2023/04/20 04:20:50;;;;;;;12.70;5.20;;;;;;;7.06;82.25;101902.25;5005132;28;20034;-71
2023/04/20 04:23:15;;;;;;;10.25;4.95;;;;;;;7.15;81.55;101880.75;5007459;28;20038;-71
2023/04/20 04:25:44;;;;;;;9.23;5.05;;;;;;;7.06;82.64;101882.81;5008734;28;20048;-71
2023/04/20 04:28:30;;;;;;;14.55;5.18;;;;;;;7.13;82.08;101887.00;5006256;28;20108;-71
2023/04/20 04:31:08;;;;;;;11.65;5.55;;;;;;;7.14;82.23;101892.28;5012066;28;20069;-71
2023/04/20 04:33:34;;;;;;;10.95;6.03;;;;;;;7.21;82.32;101887.63;4995008;28;20339;-70
2023/04/20 04:36:00;;;;;;;8.60;5.22;;;;;;;7.13;83.50;101881.69;5022258;28;20042;-70
2023/04/20 04:38:26;;;;;;;17.52;5.85;;;;;;;7.20;82.21;101888.53;5019159;28;20060;-70
2023/04/20 04:40:52;;;;;;;10.18;5.63;;;;;;;7.20;83.02;101875.28;5010982;28;20034;-70
2023/04/20 04:43:18;;;;;;;8.65;5.70;;;;;;;7.12;83.89;101912.66;5031468;28;20045;-70
2023/04/20 04:45:52;;;;;;;14.02;5.78;;;;;;;7.21;83.88;101879.66;5000452;28;20053;-70
2023/04/20 04:48:18;;;;;;;14.13;5.80;;;;;;;7.18;85.88;101879.78;5010919;28;20033;-70
2023/04/20 04:50:44;;;;;;;15.15;6.45;;;;;;;7.23;86.90;101873.41;5026400;28;20724;-71
2023/04/20 04:53:20;;;;;;;11.52;5.85;;;;;;;7.27;86.40;101906.00;5019777;28;20076;-72
2023/04/20 04:55:45;;;;;;;11.43;6.30;;;;;;;7.33;86.54;101884.59;5014137;28;20097;-71
2023/04/20 04:58:11;;;;;;;12.23;5.90;;;;;;;7.23;88.32;101897.28;5020416;28;20812;-71
2023/04/20 05:00:37;;;;;;;16.55;7.10;;;;;;;7.13;88.00;101882.59;5011354;28;20737;-71
2023/04/20 05:03:06;;;;;;;15.20;6.55;;;;;;;7.21;87.66;101891.13;5008777;28;20073;-71
2023/04/20 05:05:31;;;;;;;14.25;6.40;;;;;;;7.15;88.52;101898.44;5026134;28;20056;-71
2023/04/20 05:07:57;;;;;;;9.48;5.97;;;;;;;7.27;88.98;101887.41;5021244;28;20034;-71
2023/04/20 05:10:22;;;;;;;12.38;6.63;;;;;;;7.23;89.24;101875.19;5023929;28;20040;-70
2023/04/20 05:12:53;;;;;;;15.70;6.55;;;;;;;7.28;88.28;101883.88;5008507;28;20088;-72
2023/04/20 05:15:18;;;;;;;12.20;6.40;;;;;;;7.36;88.73;101880.94;5007345;28;20034;-71
2023/04/20 05:17:44;;;;;;;11.68;6.53;;;;;;;7.33;89.14;101881.03;5015810;28;20890;-70
2023/04/20 05:20:10;;;;;;;13.50;5.85;;;;;;;7.13;89.16;101893.19;5015307;28;20030;-70
2023/04/20 05:22:36;;;;;;;14.05;6.28;;;;;;;7.29;90.39;101880.28;5019019;28;20545;-69
2023/04/20 05:25:03;;;;;;;11.52;5.97;;;;;;;7.25;90.57;101884.81;5019922;28;20065;-69
2023/04/20 05:27:29;;;;;;;12.32;6.32;;;;;;;7.17;91.18;101884.19;5020120;28;20525;-70
2023/04/20 05:29:55;;;;;;;12.10;6.32;;;;;;;7.28;90.15;101883.88;5024634;28;20033;-71
2023/04/20 05:32:21;;;;;;;12.98;6.10;;;;;;;7.30;90.28;101878.50;5018589;28;20042;-70
2023/04/20 05:34:46;;;;;;;9.25;5.63;;;;;;;7.23;89.82;101885.81;5018798;28;20037;-73
2023/04/20 05:37:21;;;;;;;7.45;5.40;;;;;;;7.33;90.85;101876.63;5026848;28;20037;-71
2023/04/20 05:39:46;;;;;;;9.20;6.22;;;;;;;7.34;91.38;101869.53;5011031;28;20093;-70
2023/04/20 05:42:12;;;;;;;11.18;5.32;;;;;;;7.32;92.20;101872.22;5018033;28;20042;-70
2023/04/20 05:44:39;;;;;;;11.75;5.72;;;;;;;7.72;90.07;101866.41;5011359;28;20034;-70
2023/04/20 05:47:07;;;;;;;10.63;5.05;;;;;;;8.11;86.26;101868.56;5023919;28;20099;-70
2023/04/20 05:49:39;;;;;;;9.77;5.43;;;;;;;8.36;81.81;101860.59;5012258;28;20034;-71
2023/04/20 05:52:05;;;;;;;13.10;5.65;;;;;;;8.87;81.82;101858.63;5015069;28;20065;-72
2023/04/20 05:54:31;;;;;;;9.07;5.30;;;;;;;8.67;78.81;101864.72;5011823;28;20045;-71
2023/04/20 05:56:57;;;;;;;9.63;5.18;;;;;;;8.48;81.09;101872.53;5012857;28;20030;-71
2023/04/20 05:59:24;;;;;;;9.52;4.97;;;;;;;8.31;82.10;101878.47;5021694;28;20043;-71
2023/04/20 06:01:50;;;;;;;10.07;5.07;;;;;;;8.09;82.62;101890.81;5027571;28;20034;-71
2023/04/20 06:04:15;;;;;;;8.75;4.65;;;;;;;7.91;83.42;101879.03;5022735;28;21094;-71
2023/04/20 06:06:41;;;;;;;10.95;5.28;;;;;;;7.76;83.62;101886.63;5020418;28;20391;-71
2023/04/20 06:09:06;;;;;;;8.18;5.15;;;;;;;7.85;84.89;101874.81;5016404;28;20046;-71
2023/04/20 06:11:33;;;;;;;13.57;5.20;;;;;;;7.79;85.41;101872.41;5021841;28;20044;-71
2023/04/20 06:13:58;;;;;;;9.73;5.03;;;;;;;7.96;84.26;101859.38;5011400;28;20044;-71
2023/04/20 06:16:24;;;;;;;9.27;5.15;;;;;;;8.26;81.74;101873.31;5024191;28;20840;-71
2023/04/20 06:18:50;;;;;;;9.98;5.20;;;;;;;8.13;81.46;101884.44;5008936;28;20033;-71
2023/04/20 06:21:16;;;;;;;16.58;5.78;;;;;;;8.29;80.96;101869.69;5030451;28;20115;-71
2023/04/20 06:23:49;;;;;;;10.27;4.97;;;;;;;8.31;80.45;101873.16;5024446;28;20126;-71
2023/04/20 06:26:22;;;;;;;12.43;5.63;;;;;;;8.20;83.82;101881.53;5026786;28;20030;-70
2023/04/20 06:28:47;;;;;;;9.60;5.15;;;;;;;8.08;83.12;101883.75;5023887;28;20038;-71
2023/04/20 06:31:16;;;;;;;10.02;4.80;;;;;;;7.67;84.23;101878.97;5002054;28;20037;-70
2023/04/20 06:33:42;;;;;;;11.65;5.63;;;;;;;7.72;86.06;101878.81;5012057;28;20045;-70
2023/04/20 06:36:07;;;;;;;10.48;5.63;;;;;;;7.78;85.49;101886.56;5008618;28;20034;-71
2023/04/20 06:38:33;;;;;;;8.23;5.55;;;;;;;7.64;86.61;101892.38;5019087;28;20041;-70
2023/04/20 06:41:01;;;;;;;7.63;5.10;;;;;;;7.65;87.42;101879.97;5016855;28;20580;-71
2023/04/20 06:43:27;;;;;;;11.85;5.50;;;;;;;7.68;88.36;101887.81;5020271;28;20046;-69
2023/04/20 06:45:53;;;;;;;11.27;5.25;;;;;;;7.52;88.27;101880.38;5004068;28;20051;-69
2023/04/20 06:48:30;;;;;;;10.02;5.75;;;;;;;7.76;88.45;101872.50;5015175;28;20033;-69
2023/04/20 06:50:56;;;;;;;13.65;5.72;;;;;;;7.83;88.48;101876.69;5017244;28;20377;-69
2023/04/20 06:53:25;;;;;;;14.90;6.05;;;;;;;7.88;89.44;101879.16;5014907;28;20557;-69
2023/04/20 06:55:53;;;;;;;10.52;6.00;;;;;;;7.74;88.85;101875.22;5025714;28;20160;-71
2023/04/20 06:58:24;;;;;;;18.65;6.70;;;;;;;7.78;88.68;101876.84;5004751;28;20037;-69
2023/04/20 07:00:49;;;;;;;12.60;6.80;;;;;;;7.81;88.49;101881.16;5026703;28;20037;-70
2023/04/20 07:03:17;;;;;;;8.13;5.82;;;;;;;7.69;88.17;101890.44;5001689;28;20050;-71
2023/04/20 07:05:43;;;;;;;9.27;5.75;;;;;;;7.82;89.41;101880.22;5003392;28;20635;-71
2023/04/20 07:08:09;;;;;;;8.88;6.32;;;;;;;7.74;88.88;101885.81;5017879;28;20053;-70
2023/04/20 07:10:34;;;;;;;10.27;6.47;;;;;;;7.72;88.60;101881.47;5014630;28;20033;-71
2023/04/20 07:13:00;;;;;;;18.92;6.45;;;;;;;7.75;88.33;101879.59;4997456;28;20038;-69
2023/04/20 07:15:25;;;;;;;12.75;5.38;;;;;;;7.85;88.57;101876.63;5027512;28;20037;-71
2023/04/20 07:17:51;;;;;;;9.25;6.20;;;;;;;8.07;88.71;101872.25;5025676;28;20224;-72
2023/04/20 07:20:16;;;;;;;11.75;5.80;;;;;;;8.10;88.11;101861.53;5018899;28;20458;-71
2023/04/20 07:22:42;;;;;;;13.98;6.65;;;;;;;8.16;86.96;101863.09;5022563;28;20463;-71
2023/04/20 07:25:11;;;;;;;10.75;5.88;;;;;;;8.15;85.87;101867.53;5014327;28;20391;-69
2023/04/20 07:27:38;;;;;;;13.80;6.22;;;;;;;8.57;87.09;101862.41;5027850;28;20026;-72
2023/04/20 07:30:05;;;;;;;10.32;6.38;;;;;;;8.43;83.74;101859.41;5021086;28;20117;-70
2023/04/20 07:32:32;;;;;;;15.80;6.55;;;;;;;8.37;84.83;101866.78;5018982;28;20041;-69
2023/04/20 07:34:58;;;;;;;10.07;6.25;;;;;;;8.76;84.37;101861.72;5026545;28;20805;-70
2023/04/20 07:37:30;;;;;;;12.48;6.40;;;;;;;8.97;83.40;101849.34;5021991;28;20033;-72
2023/04/20 07:39:56;;;;;;;10.45;6.43;;;;;;;8.85;84.35;101849.84;5023005;28;20228;-71
2023/04/20 07:42:21;;;;;;;12.13;6.45;;;;;;;8.85;85.29;101847.19;5012617;28;20069;-69
2023/04/20 07:44:47;;;;;;;10.00;6.53;;;;;;;8.69;85.41;101860.22;5026497;28;20493;-70
2023/04/20 07:47:13;;;;;;;15.45;6.53;;;;;;;8.56;86.43;101857.16;5026851;28;20033;-70
2023/04/20 07:49:47;;;;;;;12.23;6.30;;;;;;;8.41;85.28;101860.41;5021172;28;20052;-70
2023/04/20 07:52:13;;;;;;;11.50;6.32;;;;;;;8.69;84.08;101862.91;5015512;28;20030;-70
2023/04/20 07:54:39;;;;;;;7.97;5.82;;;;;;;8.46;84.13;101850.47;5014981;28;20034;-70
2023/04/20 07:57:04;;;;;;;10.95;6.28;;;;;;;8.64;86.13;101851.56;5013863;28;20108;-71
2023/04/20 07:59:31;;;;;;;13.75;5.88;;;;;;;8.67;85.75;101840.78;5015429;28;20030;-71
2023/04/20 08:02:01;;;;;;;10.18;6.07;;;;;;;8.77;85.90;101853.66;5021762;28;20038;-71
2023/04/20 08:04:27;;;;;;;8.98;5.93;;;;;;;8.90;85.82;101843.41;5019253;28;20046;-71
2023/04/20 08:06:52;;;;;;;12.30;6.25;;;;;;;8.91;85.83;101845.16;5003472;28;20041;-71
2023/04/20 08:09:18;;;;;;;16.00;6.00;;;;;;;8.82;84.99;101842.84;5031069;28;20034;-71
2023/04/20 08:11:45;;;;;;;10.00;6.28;;;;;;;8.92;84.49;101856.66;5018282;28;20038;-72
2023/04/20 08:14:14;;;;;;;8.52;5.82;;;;;;;8.84;87.35;101856.09;5021161;28;20184;-71
2023/04/20 08:16:40;;;;;;;12.23;6.00;;;;;;;8.66;86.17;101852.38;5021789;28;20129;-71
2023/04/20 08:19:17;;;;;;;11.50;5.57;;;;;;;8.90;87.85;101847.88;5021375;28;20045;-71
2023/04/20 08:21:46;;;;;;;8.98;5.60;;;;;;;8.72;87.18;101849.47;5021770;28;20042;-71
2023/04/20 08:24:12;;;;;;;9.57;5.53;;;;;;;8.64;86.99;101848.91;5011306;28;20042;-70
2023/04/20 08:26:38;;;;;;;11.48;6.10;;;;;;;8.56;87.17;101842.09;5022590;28;20080;-70
2023/04/20 08:29:04;;;;;;;12.02;6.53;;;;;;;8.40;88.81;101853.38;5019249;28;20041;-70
2023/04/20 08:31:33;;;;;;;18.10;6.30;;;;;;;8.28;89.80;101842.25;5024590;28;20041;-70
2023/04/20 08:33:58;;;;;;;9.63;6.47;;;;;;;8.64;91.27;101831.16;5025854;28;21158;-70
2023/04/20 08:36:25;;;;;;;11.13;6.03;;;;;;;8.65;88.16;101837.34;5018614;28;20033;-70
2023/04/20 08:38:55;;;;;;;10.75;5.50;;;;;;;8.56;89.21;101839.44;5018708;28;20052;-70
2023/04/20 08:41:21;;;;;;;10.88;5.72;;;;;;;9.04;90.23;101832.22;5000830;28;20054;-70
2023/04/20 08:43:49;;;;;;;9.82;5.63;;;;;;;8.76;88.82;101832.47;5021980;28;20033;-69
2023/04/20 08:46:16;;;;;;;11.65;6.07;;;;;;;8.85;88.03;101825.91;5025266;28;20135;-70
2023/04/20 08:48:45;;;;;;;14.60;6.20;;;;;;;8.88;88.87;101825.78;5029585;28;20064;-70
2023/04/20 08:51:11;;;;;;;10.63;6.13;;;;;;;8.93;89.12;101837.94;5025258;28;20040;-70
2023/04/20 08:53:36;;;;;;;9.40;6.30;;;;;;;8.83;90.01;101831.28;5020428;28;20064;-71
2023/04/20 08:56:02;;;;;;;12.93;6.07;;;;;;;8.62;88.91;101845.44;5005092;28;20037;-71
2023/04/20 08:58:33;;;;;;;9.48;5.45;;;;;;;8.37;89.92;101853.47;5021840;28;20034;-71
2023/04/20 09:01:00;;;;;;;11.35;5.38;;;;;;;8.39;90.68;101849.84;4997684;28;20415;-71
2023/04/20 09:03:40;;;;;;;10.80;5.68;;;;;;;8.41;89.61;101850.66;5024788;28;20053;-70
2023/04/20 09:06:15;;;;;;;11.57;6.00;;;;;;;8.57;91.61;101842.94;5022540;28;20042;-69
2023/04/20 09:08:42;;;;;;;11.07;5.90;;;;;;;8.51;93.20;101841.41;5025958;28;20068;-72
2023/04/20 09:11:23;;;;;;;12.15;6.15;;;;;;;8.20;91.70;101833.69;5010872;28;20045;-70
2023/04/20 09:14:09;;;;;;;9.80;6.43;;;;;;;8.45;92.23;101849.63;5010063;28;20045;-72
2023/04/20 09:16:38;;;;;;;13.48;6.53;;;;;;;8.61;92.04;101838.38;5013904;28;20036;-69
2023/04/20 09:19:04;;;;;;;10.80;5.40;;;;;;;8.66;91.85;101839.94;5012714;28;20032;-72
2023/04/20 09:21:31;;;;;;;8.30;5.68;;;;;;;8.81;91.72;101831.34;5019792;28;20168;-69
2023/04/20 09:24:07;;;;;;;9.57;5.68;;;;;;;8.96;93.27;101840.50;5020687;28;20076;-70
2023/04/20 09:26:35;;;;;;;10.63;6.50;;;;;;;8.63;90.33;101844.50;5023191;28;20045;-70
2023/04/20 09:29:03;;;;;;;13.57;6.40;;;;;;;8.68;91.78;101829.22;5026107;28;20048;-70
2023/04/20 09:31:28;;;;;;;10.55;5.82;;;;;;;8.98;91.94;101835.97;5011287;28;20040;-70
2023/04/20 09:34:01;;;;;;;16.23;6.88;;;;;;;9.19;90.74;101825.41;5009181;28;20133;-70
2023/04/20 09:36:40;;;;;;;11.50;5.35;;;;;;;9.42;89.72;101824.41;5022545;28;20037;-70
2023/04/20 09:39:07;;;;;;;10.48;6.00;;;;;;;9.43;88.24;101829.66;5004243;28;20084;-70
2023/04/20 09:41:34;;;;;;;13.48;5.68;;;;;;;9.27;88.86;101828.59;5005144;28;20042;-71
2023/04/20 09:44:01;;;;;;;9.68;6.22;;;;;;;9.27;90.56;101848.09;5026284;28;20194;-71
2023/04/20 09:46:30;;;;;;;6.82;5.22;;;;;;;9.20;87.02;101830.66;5021320;28;20554;-71
2023/04/20 09:49:01;;;;;;;9.07;5.85;;;;;;;9.48;86.76;101816.16;5002905;28;20038;-71
2023/04/20 09:51:27;;;;;;;9.95;5.90;;;;;;;9.50;85.67;101828.50;5022657;28;20160;-70
2023/04/20 09:53:57;;;;;;;10.35;5.97;;;;;;;9.55;84.48;101828.28;5018976;28;20470;-72
2023/04/20 09:56:23;;;;;;;14.10;6.50;;;;;;;9.81;82.55;101817.34;5026577;28;20034;-70
2023/04/20 09:58:59;;;;;;;11.63;5.60;;;;;;;10.01;81.20;101811.13;5022410;28;20112;-69
2023/04/20 10:01:24;;;;;;;10.45;6.00;;;;;;;9.62;84.83;101818.22;5027352;28;20905;-70
2023/04/20 10:03:56;;;;;;;13.98;5.90;;;;;;;9.46;83.33;101821.56;5021059;28;20487;-72
2023/04/20 10:06:24;;;;;;;8.57;5.63;;;;;;;9.41;83.89;101815.56;5005964;28;20100;-71
2023/04/20 10:08:51;;;;;;;7.93;5.30;;;;;;;9.55;82.92;101815.84;5022043;28;20563;-72
2023/04/20 10:11:41;;;;;;;7.00;5.80;;;;;;;10.01;82.43;101805.81;4991432;28;20045;-70
2023/04/20 10:14:22;;;;;;;10.93;6.22;;;;;;;9.99;81.82;101805.03;5004466;28;20719;-71
2023/04/20 10:17:05;;;;;;;9.98;5.97;;;;;;;10.04;79.12;101796.78;5014522;28;20132;-72
2023/04/20 10:19:41;;;;;;;9.70;6.07;;;;;;;10.36;81.28;101798.88;5010076;28;20045;-72
2023/04/20 10:22:09;;;;;;;7.32;5.82;;;;;;;9.79;80.32;101805.06;5025668;28;20471;-71
2023/04/20 10:24:37;;;;;;;8.13;5.57;;;;;;;10.33;78.13;101779.47;5009705;28;20037;-71
2023/04/20 10:27:05;;;;;;;9.02;6.88;;;;;;;11.35;78.76;101773.56;5021592;28;20030;-71
2023/04/20 10:29:31;;;;;;;14.05;6.45;;;;;;;11.40;77.76;101761.69;5018009;28;20178;-71
2023/04/20 10:31:56;;;;;;;7.78;6.28;;;;;;;10.80;74.80;101781.69;5023759;28;20847;-71
2023/04/20 10:34:34;;;;;;;14.40;6.65;;;;;;;11.25;75.23;101778.50;5014396;28;20085;-70
2023/04/20 10:37:14;;;;;;;9.70;6.20;;;;;;;11.29;74.94;101764.03;5018340;28;20045;-71
2023/04/20 10:39:47;;;;;;;10.65;6.47;;;;;;;10.43;75.28;101783.44;5008402;28;20034;-70
2023/04/20 10:42:12;;;;;;;8.13;6.03;;;;;;;10.27;74.48;101783.31;5018745;28;20037;-71
2023/04/20 10:44:51;;;;;;;7.55;5.90;;;;;;;10.13;75.97;101764.38;5013014;28;20037;-71
2023/04/20 10:47:25;;;;;;;16.80;6.88;;;;;;;10.02;74.88;101769.34;5011911;28;20140;-71
2023/04/20 10:49:51;;;;;;;12.73;5.95;;;;;;;9.98;77.08;101762.44;5027951;28;21254;-71
2023/04/20 10:52:16;;;;;;;11.52;6.38;;;;;;;9.83;75.77;101762.19;5029349;28;20112;-71
2023/04/20 10:54:42;;;;;;;15.60;6.93;;;;;;;9.79;75.00;101763.28;5018107;28;20038;-71
2023/04/20 10:57:07;;;;;;;9.18;6.00;;;;;;;9.75;78.16;101761.69;5011727;28;20101;-71
2023/04/20 10:59:37;;;;;;;11.25;6.00;;;;;;;9.51;79.52;101803.59;5028447;28;20036;-71
2023/04/20 11:02:14;;;;;;;12.32;6.78;;;;;;;10.17;80.42;101765.13;5024515;28;20034;-71
2023/04/20 11:04:39;;;;;;;7.95;6.05;;;;;;;10.26;77.15;101748.72;5001895;28;20070;-71
2023/04/20 11:07:07;;;;;;;13.90;6.45;;;;;;;10.08;76.16;101751.28;5015884;28;20033;-70
2023/04/20 11:09:41;;;;;;;11.13;6.53;;;;;;;10.37;75.86;101743.75;5021122;28;20040;-71
2023/04/20 11:12:10;;;;;;;9.98;6.30;;;;;;;10.13;75.72;101751.06;5017742;28;20038;-70
2023/04/20 11:14:52;;;;;;;12.18;6.38;;;;;;;10.30;77.26;101734.31;5023787;28;20034;-70
2023/04/20 11:17:18;;;;;;;12.02;7.65;;;;;;;10.23;77.38;101738.16;5021163;28;20036;-70
2023/04/20 11:19:43;;;;;;;10.98;7.38;;;;;;;10.28;74.19;101745.03;5025045;28;20041;-71
2023/04/20 11:22:41;;;;;;;8.70;6.25;;;;;;;10.49;74.50;101740.50;5022849;28;20852;-71
2023/04/20 11:25:09;;;;;;;10.45;6.53;;;;;;;10.63;72.05;101724.66;5023786;28;20085;-71
2023/04/20 11:27:48;;;;;;;10.77;6.28;;;;;;;10.46;72.72;101731.78;5020094;28;20026;-71
2023/04/20 11:30:14;;;;;;;8.52;6.72;;;;;;;10.02;74.38;101737.38;5026406;28;20077;-71
2023/04/20 11:32:53;;;;;;;9.13;6.07;;;;;;;10.12;73.99;101731.53;4998147;28;20038;-71
2023/04/20 11:35:19;;;;;;;17.98;7.40;;;;;;;10.04;75.37;101727.50;5020592;28;20045;-72